Pagina principale
METAR-TAF:

METAR-TAF

Aeroporti :

Aeroporto di Rimini-Miramare

Rimini, Italia

latitudine: 44-02N, longitudine: 012-37E, altezza: 12 m

Osservazione

Il bollettino è stato emesso 30 minuti fa, alle 09:50 UTC
Vento 2 kt da direzioni variabili
Temperature 10°C
Umidità 76%
Pressione 1015 hPa
Visibilità 10 km o più
Poco nuvoloso ad un'altezza di 3000 ft
Nuvoloso ad un'altezza di 4000 ft
pioggia debole

METAR: LIPR 090950Z VRB02KT 9999 -RA FEW030 BKN040 10/06 Q1015

Ora: 11:20 (10:20 UTC)

Previsione

Il bollettino è stato emesso 2 ore e 20 minuti fa, alle 08:00 UTC
Previsione valida dal 09 alle 09 UTC al 09 alle 18 UTC
Vento 5 kt da direzioni variabili
Visibilità 10 km o più
Nuvoloso ad un'altezza di 4000 ft
Temporaneamente
dal 09 alle 09 UTC al 09 alle 15 UTC
pioviggine

TAF: LIPR 090800Z 0909/0918 VRB05KT 9999 BKN040 TEMPO 0909/0915 DZ

Osservazioni e previsioni meteorologiche di più di 4000 aeroporti (messaggi METAR e TAF).

Le stazioni disponibili sono rappresentate dai dischi gialli e rossi sulla carta.

Puntare il mouse per vedere il nome della stazione.

Clicca sopra per visualizzare le osservazioni e previsioni meteorologiche.

Per cambiare la mappa : fare clic sui pulsanti verdi con una croce nera per ingrandire, il pulsante verde con un trattino per diminuire, o sulla freccia verde per le mappe adiacenti.


METAR-TAF: